Time,TemperatureF,DewpointF,PressureIn,WindDirection,WindDirectionDegrees,WindSpeedMPH,WindSpeedGustMPH,Humidity,HourlyPrecipIn,Conditions,Clouds,dailyrainin,SoftwareType,DateUTC
2013-03-15 00:02:00,45.3,25.6,29.84,WSW,247,0.0,0.0,46,0.00,,,0.00,LWC V2.10 B1813,2013-03-15 06:02:00,
2013-03-15 00:07:00,45.3,25.6,29.84,WSW,247,0.0,0.0,46,0.00,,,0.00,LWC V2.10 B1813,2013-03-15 06:07:00,
2013-03-15 00:12:00,45.1,25.5,29.84,WSW,247,0.0,0.0,46,0.00,,,0.00,LWC V2.10 B1813,2013-03-15 06:12:00,
2013-03-15 00:17:00,45.1,26.0,29.84,WSW,247,0.0,0.0,47,0.00,,,0.00,LWC V2.10 B1813,2013-03-15 06:17:00,
2013-03-15 00:22:00,44.8,26.2,29.83,WSW,247,0.0,0.0,48,0.00,,,0.00,LWC V2.10 B1813,2013-03-15 06:22:00,
2013-03-15 00:27:00,45.0,25.8,29.83,SW,225,0.0,0.0,47,0.00,,,0.00,LWC V2.10 B1813,2013-03-15 06:27:00,
2013-03-15 00:32:00,45.3,26.2,29.82,SW,225,0.0,0.0,47,0.00,,,0.00,LWC V2.10 B1813,2013-03-15 06:32:00,
2013-03-15 00:37:00,45.7,26.0,29.83,SW,225,0.0,0.0,46,0.00,,,0.00,LWC V2.10 B1813,2013-03-15 06:37:00,
2013-03-15 00:42:00,45.9,26.1,29.82,SW,225,0.0,0.0,46,0.00,,,0.00,LWC V2.10 B1813,2013-03-15 06:42:00,
2013-03-15 00:47:00,45.7,26.0,29.82,SW,225,0.0,0.0,46,0.00,,,0.00,LWC V2.10 B1813,2013-03-15 06:47:00,
2013-03-15 00:52:00,45.7,26.0,29.81,SW,225,0.0,0.0,46,0.00,,,0.00,LWC V2.10 B1813,2013-03-15 06:52:00,
2013-03-15 00:57:00,45.9,26.1,29.81,SW,225,0.0,0.0,46,0.00,,,0.00,LWC V2.10 B1813,2013-03-15 06:57:00,
2013-03-15 01:02:00,46.0,26.8,29.81,SW,225,0.0,0.0,47,0.00,,,0.00,LWC V2.10 B1813,2013-03-15 07:02:00,
2013-03-15 01:07:00,46.0,26.8,29.81,SW,225,0.0,0.0,47,0.00,,,0.00,LWC V2.10 B1813,2013-03-15 07:07:00,
2013-03-15 01:12:00,46.0,26.8,29.80,SW,225,0.0,0.0,47,0.00,,,0.00,LWC V2.10 B1813,2013-03-15 07:12:00,
2013-03-15 01:17:00,48.9,27.3,29.80,West,270,0.0,4.7,43,0.00,,,0.00,LWC V2.10 B1813,2013-03-15 07:17:00,
2013-03-15 01:22:00,51.8,27.5,29.80,NNE,22,0.0,0.0,39,0.00,,,0.00,LWC V2.10 B1813,2013-03-15 07:22:00,
2013-03-15 01:27:00,54.1,28.3,29.80,ENE,67,0.0,0.0,37,0.00,,,0.00,LWC V2.10 B1813,2013-03-15 07:27:00,
2013-03-15 01:32:00,56.1,28.6,29.80,West,270,0.0,0.0,35,0.00,,,0.00,LWC V2.10 B1813,2013-03-15 07:32:00,
2013-03-15 01:37:00,56.5,27.5,29.80,South,180,4.0,4.0,33,0.00,,,0.00,LWC V2.10 B1813,2013-03-15 07:37:00,
2013-03-15 01:42:00,57.0,27.3,29.79,South,180,0.0,0.0,32,0.00,,,0.00,LWC V2.10 B1813,2013-03-15 07:42:00,
2013-03-15 01:47:00,58.1,27.6,29.79,WNW,292,0.0,6.7,31,0.00,,,0.00,LWC V2.10 B1813,2013-03-15 07:47:00,
2013-03-15 01:52:00,58.8,27.5,29.79,SSW,202,11.0,11.0,30,0.00,,,0.00,LWC V2.10 B1813,2013-03-15 07:52:00,
2013-03-15 01:57:00,59.2,26.9,29.79,South,180,3.4,3.4,29,0.00,,,0.00,LWC V2.10 B1813,2013-03-15 07:57:00,
2013-03-15 02:02:00,59.5,27.1,29.79,SSW,202,0.0,0.0,29,0.00,,,0.00,LWC V2.10 B1813,2013-03-15 08:02:00,
2013-03-15 02:07:00,59.7,27.3,29.79,SSE,157,11.0,11.0,29,0.00,,,0.00,LWC V2.10 B1813,2013-03-15 08:07:00,
2013-03-15 02:12:00,60.1,26.6,29.79,SSE,157,0.0,0.0,28,0.00,,,0.00,LWC V2.10 B1813,2013-03-15 08:12:00,
2013-03-15 02:17:00,59.9,26.5,29.78,SW,225,0.0,6.0,28,0.00,,,0.00,LWC V2.10 B1813,2013-03-15 08:17:00,
2013-03-15 02:22:00,59.5,27.1,29.79,West,270,0.0,0.0,29,0.00,,,0.00,LWC V2.10 B1813,2013-03-15 08:22:00,
2013-03-15 02:27:00,59.2,26.9,29.78,SW,225,0.0,0.0,29,0.00,,,0.00,LWC V2.10 B1813,2013-03-15 08:27:00,
2013-03-15 02:32:00,59.2,26.9,29.77,West,270,0.0,0.0,29,0.00,,,0.00,LWC V2.10 B1813,2013-03-15 08:32:00,
2013-03-15 02:37:00,59.4,27.0,29.79,SW,225,3.4,5.6,29,0.00,,,0.00,LWC V2.10 B1813,2013-03-15 08:37:00,
2013-03-15 02:42:00,59.5,27.1,29.78,WSW,247,8.9,8.9,29,0.00,,,0.00,LWC V2.10 B1813,2013-03-15 08:42:00,
2013-03-15 02:47:00,60.1,26.6,29.79,SW,225,13.4,13.4,28,0.00,,,0.00,LWC V2.10 B1813,2013-03-15 08:47:00,
2013-03-15 02:52:00,59.9,26.5,29.79,WSW,247,0.0,0.0,28,0.00,,,0.00,LWC V2.10 B1813,2013-03-15 08:52:00,
2013-03-15 02:57:00,59.9,27.4,29.79,SSW,202,3.8,3.8,29,0.00,,,0.00,LWC V2.10 B1813,2013-03-15 08:57:00,
2013-03-15 03:02:00,59.7,27.3,29.79,SW,225,6.3,6.9,29,0.00,,,0.00,LWC V2.10 B1813,2013-03-15 09:02:00,
2013-03-15 03:07:00,59.5,27.1,29.78,SW,225,5.4,5.4,29,0.00,,,0.00,LWC V2.10 B1813,2013-03-15 09:07:00,
2013-03-15 03:12:00,59.5,27.1,29.78,South,180,3.8,3.8,29,0.00,,,0.00,LWC V2.10 B1813,2013-03-15 09:12:00,
2013-03-15 03:17:00,59.5,27.1,29.78,SSW,202,7.6,7.6,29,0.00,,,0.00,LWC V2.10 B1813,2013-03-15 09:17:00,
2013-03-15 03:22:00,59.5,27.1,29.78,SW,225,0.0,7.2,29,0.00,,,0.00,LWC V2.10 B1813,2013-03-15 09:22:00,
2013-03-15 03:27:00,59.4,27.0,29.77,WSW,247,0.0,0.0,29,0.00,,,0.00,LWC V2.10 B1813,2013-03-15 09:27:00,
2013-03-15 03:32:00,58.8,26.5,29.77,WSW,247,0.0,0.0,29,0.00,,,0.00,LWC V2.10 B1813,2013-03-15 09:32:00,
2013-03-15 03:37:00,58.8,26.5,29.77,WSW,247,0.0,0.0,29,0.00,,,0.00,LWC V2.10 B1813,2013-03-15 09:37:00,
2013-03-15 03:42:00,58.8,26.5,29.76,NW,315,0.0,0.0,29,0.00,,,0.00,LWC V2.10 B1813,2013-03-15 09:42:00,
2013-03-15 03:47:00,57.9,25.7,29.76,NNW,337,0.0,0.0,29,0.00,,,0.00,LWC V2.10 B1813,2013-03-15 09:47:00,
2013-03-15 03:52:00,57.4,26.2,29.76,West,270,0.0,0.0,30,0.00,,,0.00,LWC V2.10 B1813,2013-03-15 09:52:00,
2013-03-15 03:57:00,57.0,25.9,29.76,West,270,0.0,0.0,30,0.00,,,0.00,LWC V2.10 B1813,2013-03-15 09:57:00,
2013-03-15 04:02:00,56.8,25.7,29.76,West,270,0.0,0.0,30,0.00,,,0.00,LWC V2.10 B1813,2013-03-15 10:02:00,
2013-03-15 04:07:00,57.0,25.9,29.76,West,270,0.0,0.0,30,0.00,,,0.00,LWC V2.10 B1813,2013-03-15 10:07:00,
2013-03-15 04:12:00,57.0,25.9,29.75,WSW,247,0.0,0.0,30,0.00,,,0.00,LWC V2.10 B1813,2013-03-15 10:12:00,
2013-03-15 04:17:00,56.8,26.4,29.75,SSW,202,0.0,0.0,31,0.00,,,0.00,LWC V2.10 B1813,2013-03-15 10:17:00,
2013-03-15 04:22:00,56.5,26.1,29.75,SSW,202,0.0,0.0,31,0.00,,,0.00,LWC V2.10 B1813,2013-03-15 10:22:00,
2013-03-15 04:27:00,55.9,26.3,29.75,SSW,202,0.0,0.0,32,0.00,,,0.00,LWC V2.10 B1813,2013-03-15 10:27:00,
2013-03-15 04:32:00,54.3,26.3,29.75,WSW,247,0.0,0.0,34,0.00,,,0.00,LWC V2.10 B1813,2013-03-15 10:32:00,
2013-03-15 04:37:00,54.1,25.5,29.75,SW,225,0.0,0.0,33,0.00,,,0.00,LWC V2.10 B1813,2013-03-15 10:37:00,
2013-03-15 04:42:00,54.0,25.3,29.75,SW,225,0.0,0.0,33,0.00,,,0.00,LWC V2.10 B1813,2013-03-15 10:42:00,
2013-03-15 04:47:00,53.8,25.9,29.75,SW,225,0.0,0.0,34,0.00,,,0.00,LWC V2.10 B1813,2013-03-15 10:47:00,
2013-03-15 04:52:00,52.9,25.1,29.74,SW,225,0.0,0.0,34,0.00,,,0.00,LWC V2.10 B1813,2013-03-15 10:52:00,
2013-03-15 04:57:00,53.4,25.6,29.74,WNW,292,0.0,0.0,34,0.00,,,0.00,LWC V2.10 B1813,2013-03-15 10:57:00,
2013-03-15 05:02:00,53.4,25.6,29.74,NW,315,0.0,0.0,34,0.00,,,0.00,LWC V2.10 B1813,2013-03-15 11:02:00,
2013-03-15 05:07:00,52.9,25.8,29.74,West,270,0.0,0.0,35,0.00,,,0.00,LWC V2.10 B1813,2013-03-15 11:07:00,
2013-03-15 05:12:00,52.7,25.8,29.74,West,270,3.1,3.1,35,0.00,,,0.00,LWC V2.10 B1813,2013-03-15 11:12:00,
2013-03-15 05:17:00,53.4,25.6,29.75,North,0,0.0,0.0,34,0.00,,,0.00,LWC V2.10 B1813,2013-03-15 11:17:00,
2013-03-15 05:22:00,54.7,25.9,29.75,NNW,337,0.0,0.0,33,0.00,,,0.00,LWC V2.10 B1813,2013-03-15 11:22:00,
2013-03-15 05:28:00,55.6,26.0,29.75,WSW,247,0.0,0.0,32,0.00,,,0.00,LWC V2.10 B1813,2013-03-15 11:28:00,
2013-03-15 05:33:00,55.6,26.7,29.75,WNW,292,0.0,0.0,33,0.00,,,0.00,LWC V2.10 B1813,2013-03-15 11:33:00,
2013-03-15 05:38:00,55.0,26.2,29.75,WNW,292,0.0,0.0,33,0.00,,,0.00,LWC V2.10 B1813,2013-03-15 11:38:00,
2013-03-15 05:43:00,53.8,25.9,29.75,NNE,22,0.0,0.0,34,0.00,,,0.00,LWC V2.10 B1813,2013-03-15 11:43:00,
2013-03-15 05:48:00,52.9,25.8,29.75,SSW,202,0.0,0.0,35,0.00,,,0.00,LWC V2.10 B1813,2013-03-15 11:48:00,
2013-03-15 05:53:00,51.8,25.5,29.74,SSW,202,0.0,0.0,36,0.00,,,0.00,LWC V2.10 B1813,2013-03-15 11:53:00,
2013-03-15 05:58:00,51.1,25.5,29.74,SSW,202,0.0,0.0,37,0.00,,,0.00,LWC V2.10 B1813,2013-03-15 11:58:00,
2013-03-15 06:03:00,50.2,25.4,29.74,SSW,202,0.0,0.0,38,0.00,,,0.00,LWC V2.10 B1813,2013-03-15 12:03:00,
2013-03-15 06:08:00,49.6,24.9,29.74,SW,225,0.0,0.0,38,0.00,,,0.00,LWC V2.10 B1813,2013-03-15 12:08:00,
2013-03-15 06:13:00,48.6,24.6,29.74,SW,225,0.0,0.0,39,0.00,,,0.00,LWC V2.10 B1813,2013-03-15 12:13:00,
2013-03-15 06:18:00,47.5,23.7,29.74,SW,225,0.0,0.0,39,0.00,,,0.00,LWC V2.10 B1813,2013-03-15 12:18:00,
2013-03-15 06:23:00,47.1,24.0,29.74,SW,225,0.0,0.0,40,0.00,,,0.00,LWC V2.10 B1813,2013-03-15 12:23:00,
2013-03-15 06:28:00,46.8,23.7,29.74,WSW,247,0.0,1.6,40,0.00,,,0.00,LWC V2.10 B1813,2013-03-15 12:28:00,
2013-03-15 06:33:00,46.6,24.1,29.74,WSW,247,0.0,0.0,41,0.00,,,0.00,LWC V2.10 B1813,2013-03-15 12:33:00,
2013-03-15 06:38:00,46.2,23.7,29.74,WSW,247,0.0,0.0,41,0.00,,,0.00,LWC V2.10 B1813,2013-03-15 12:38:00,
2013-03-15 06:43:00,46.2,23.7,29.74,West,270,0.0,0.0,41,0.00,,,0.00,LWC V2.10 B1813,2013-03-15 12:43:00,
2013-03-15 06:48:00,46.0,23.6,29.74,West,270,0.0,0.0,41,0.00,,,0.00,LWC V2.10 B1813,2013-03-15 12:48:00,
2013-03-15 06:53:00,45.7,23.8,29.74,WSW,247,0.0,0.0,42,0.00,,,0.00,LWC V2.10 B1813,2013-03-15 12:53:00,
2013-03-15 06:58:00,46.0,23.6,29.74,West,270,0.0,0.0,41,0.00,,,0.00,LWC V2.10 B1813,2013-03-15 12:58:00,
2013-03-15 07:03:00,46.0,23.6,29.74,West,270,0.0,0.0,41,0.00,,,0.00,LWC V2.10 B1813,2013-03-15 13:03:00,
2013-03-15 07:08:00,45.7,23.8,29.73,West,270,0.0,0.0,42,0.00,,,0.00,LWC V2.10 B1813,2013-03-15 13:08:00,
2013-03-15 07:13:00,45.3,23.5,29.74,West,270,0.0,0.0,42,0.00,,,0.00,LWC V2.10 B1813,2013-03-15 13:13:00,
2013-03-15 07:18:00,45.5,23.6,29.74,West,270,0.0,0.0,42,0.00,,,0.00,LWC V2.10 B1813,2013-03-15 13:18:00,
2013-03-15 07:23:00,45.5,24.2,29.74,West,270,0.0,0.0,43,0.00,,,0.00,LWC V2.10 B1813,2013-03-15 13:23:00,
2013-03-15 07:28:00,45.1,23.8,29.74,WSW,247,0.0,0.0,43,0.00,,,0.00,LWC V2.10 B1813,2013-03-15 13:28:00,
2013-03-15 07:33:00,45.1,23.8,29.74,SW,225,0.0,0.0,43,0.00,,,0.00,LWC V2.10 B1813,2013-03-15 13:33:00,
2013-03-15 07:38:00,45.1,24.4,29.74,WNW,292,0.0,0.0,44,0.00,,,0.00,LWC V2.10 B1813,2013-03-15 13:38:00,
2013-03-15 07:43:00,45.5,24.2,29.75,SSW,202,7.4,7.4,43,0.00,,,0.00,LWC V2.10 B1813,2013-03-15 13:43:00,
2013-03-15 07:48:00,45.1,24.4,29.75,WNW,292,0.0,0.0,44,0.00,,,0.00,LWC V2.10 B1813,2013-03-15 13:48:00,
2013-03-15 07:53:00,45.3,24.5,29.74,WSW,247,0.0,0.0,44,0.00,,,0.00,LWC V2.10 B1813,2013-03-15 13:53:00,
2013-03-15 07:58:00,46.0,25.2,29.74,North,0,0.0,0.0,44,0.00,,,0.00,LWC V2.10 B1813,2013-03-15 13:58:00,
2013-03-15 08:03:00,46.6,25.1,29.74,West,270,0.0,0.0,43,0.00,,,0.00,LWC V2.10 B1813,2013-03-15 14:03:00,
2013-03-15 08:08:00,46.9,25.5,29.74,South,180,0.0,0.0,43,0.00,,,0.00,LWC V2.10 B1813,2013-03-15 14:08:00,
2013-03-15 08:13:00,47.1,25.1,29.74,SSW,202,0.0,0.0,42,0.00,,,0.00,LWC V2.10 B1813,2013-03-15 14:13:00,
2013-03-15 08:18:00,47.1,25.1,29.73,SSW,202,0.0,0.0,42,0.00,,,0.00,LWC V2.10 B1813,2013-03-15 14:18:00,
2013-03-15 08:23:00,47.1,25.5,29.73,WSW,247,0.0,0.0,43,0.00,,,0.00,LWC V2.10 B1813,2013-03-15 14:23:00,
2013-03-15 08:28:00,46.8,25.3,29.74,WSW,247,0.0,0.0,43,0.00,,,0.00,LWC V2.10 B1813,2013-03-15 14:28:00,
2013-03-15 08:33:00,46.2,25.4,29.73,WSW,247,0.0,0.0,44,0.00,,,0.00,LWC V2.10 B1813,2013-03-15 14:33:00,
2013-03-15 08:38:00,46.2,25.2,29.73,North,0,0.0,0.0,44,0.00,,,0.00,LWC V2.10 B1813,2013-03-15 14:38:00,
2013-03-15 08:43:00,46.8,25.8,29.73,North,0,0.0,0.0,44,0.00,,,0.00,LWC V2.10 B1813,2013-03-15 14:43:00,
2013-03-15 08:48:00,47.7,26.7,29.73,WNW,292,0.0,0.0,44,0.00,,,0.00,LWC V2.10 B1813,2013-03-15 14:48:00,
2013-03-15 08:53:00,49.8,27.3,29.73,North,0,0.0,0.0,43,0.00,,,0.00,LWC V2.10 B1813,2013-03-15 14:53:00,
2013-03-15 08:58:00,51.4,28.5,29.73,NNW,337,0.0,0.0,41,0.00,,,0.00,LWC V2.10 B1813,2013-03-15 14:58:00,
2013-03-15 09:03:00,52.9,29.2,29.73,WSW,247,0.0,0.0,40,0.00,,,0.00,LWC V2.10 B1813,2013-03-15 15:03:00,
2013-03-15 09:08:00,53.4,28.3,29.72,WSW,247,0.0,0.0,38,0.00,,,0.00,LWC V2.10 B1813,2013-03-15 15:08:00,
2013-03-15 09:13:00,55.4,29.4,29.72,SW,225,0.0,0.0,37,0.00,,,0.00,LWC V2.10 B1813,2013-03-15 15:13:00,
2013-03-15 09:18:00,56.1,30.0,29.72,SW,225,0.0,0.0,37,0.00,,,0.00,LWC V2.10 B1813,2013-03-15 15:18:00,
2013-03-15 09:23:00,57.6,30.4,29.72,WSW,247,0.0,0.0,35,0.00,,,0.00,LWC V2.10 B1813,2013-03-15 15:23:00,
2013-03-15 09:28:00,58.8,31.0,29.72,WSW,247,0.0,0.0,35,0.00,,,0.00,LWC V2.10 B1813,2013-03-15 15:28:00,
2013-03-15 09:33:00,61.0,32.2,29.72,WSW,247,0.0,0.0,34,0.00,,,0.00,LWC V2.10 B1813,2013-03-15 15:33:00,
2013-03-15 09:38:00,62.2,31.9,29.72,West,270,0.0,0.0,32,0.00,,,0.00,LWC V2.10 B1813,2013-03-15 15:38:00,
2013-03-15 09:43:00,63.1,32.7,29.72,WSW,247,0.0,0.0,32,0.00,,,0.00,LWC V2.10 B1813,2013-03-15 15:43:00,
2013-03-15 09:48:00,64.6,33.2,29.72,WSW,247,0.0,0.0,31,0.00,,,0.00,LWC V2.10 B1813,2013-03-15 15:48:00,
2013-03-15 09:53:00,65.3,33.3,29.72,North,0,0.0,0.0,30,0.00,,,0.00,LWC V2.10 B1813,2013-03-15 15:53:00,
2013-03-15 09:58:00,65.5,33.3,29.71,NE,45,0.0,0.0,30,0.00,,,0.00,LWC V2.10 B1813,2013-03-15 15:58:00,
2013-03-15 10:03:00,66.0,32.8,29.71,NE,45,0.0,0.0,29,0.00,,,0.00,LWC V2.10 B1813,2013-03-15 16:03:00,
2013-03-15 10:08:00,66.9,32.5,29.71,SSW,202,0.0,0.0,28,0.00,,,0.00,LWC V2.10 B1813,2013-03-15 16:08:00,
2013-03-15 10:13:00,67.8,32.3,29.70,SSW,202,0.0,0.0,27,0.00,,,0.00,LWC V2.10 B1813,2013-03-15 16:13:00,
2013-03-15 10:18:00,68.9,33.2,29.70,SE,135,3.8,3.8,27,0.00,,,0.00,LWC V2.10 B1813,2013-03-15 16:18:00,
2013-03-15 10:23:00,70.0,33.2,29.70,SSE,157,0.0,0.0,26,0.00,,,0.00,LWC V2.10 B1813,2013-03-15 16:23:00,
2013-03-15 10:28:00,69.6,31.8,29.70,NNE,22,0.0,0.0,25,0.00,,,0.00,LWC V2.10 B1813,2013-03-15 16:28:00,
2013-03-15 10:33:00,68.2,30.6,29.70,NE,45,0.0,0.0,25,0.00,,,0.00,LWC V2.10 B1813,2013-03-15 16:33:00,
2013-03-15 10:38:00,68.0,30.5,29.70,NNE,22,0.0,0.0,25,0.00,,,0.00,LWC V2.10 B1813,2013-03-15 16:38:00,
2013-03-15 10:43:00,67.8,30.3,29.68,NNE,22,0.0,0.0,25,0.00,,,0.00,LWC V2.10 B1813,2013-03-15 16:43:00,
2013-03-15 10:48:00,67.6,30.2,29.68,NNE,22,0.0,0.0,25,0.00,,,0.00,LWC V2.10 B1813,2013-03-15 16:48:00,
2013-03-15 10:53:00,68.2,29.6,29.69,NE,45,0.0,0.0,24,0.00,,,0.00,LWC V2.10 B1813,2013-03-15 16:53:00,
2013-03-15 10:58:00,69.1,31.4,29.69,North,0,0.0,0.0,25,0.00,,,0.00,LWC V2.10 B1813,2013-03-15 16:58:00,
2013-03-15 11:03:00,70.5,31.6,29.68,SE,135,0.0,0.0,24,0.00,,,0.00,LWC V2.10 B1813,2013-03-15 17:03:00,
2013-03-15 11:08:00,71.2,32.2,29.68,NE,45,0.0,3.8,24,0.00,,,0.00,LWC V2.10 B1813,2013-03-15 17:08:00,
2013-03-15 11:13:00,70.5,31.6,29.68,NE,45,3.4,3.4,24,0.00,,,0.00,LWC V2.10 B1813,2013-03-15 17:13:00,
2013-03-15 11:18:00,70.5,30.6,29.68,NE,45,0.0,0.0,23,0.00,,,0.00,LWC V2.10 B1813,2013-03-15 17:18:00,
2013-03-15 11:23:00,72.1,31.9,29.67,NE,45,0.0,0.0,23,0.00,,,0.00,LWC V2.10 B1813,2013-03-15 17:23:00,
2013-03-15 11:28:00,71.8,31.6,29.67,NE,45,0.0,0.0,23,0.00,,,0.00,LWC V2.10 B1813,2013-03-15 17:28:00,
2013-03-15 11:33:00,71.6,31.5,29.67,ENE,67,0.0,0.0,23,0.00,,,0.00,LWC V2.10 B1813,2013-03-15 17:33:00,
2013-03-15 11:38:00,72.5,32.3,29.67,NE,45,0.0,3.1,23,0.00,,,0.00,LWC V2.10 B1813,2013-03-15 17:38:00,
2013-03-15 11:43:00,73.6,33.2,29.67,ENE,67,0.0,0.0,23,0.00,,,0.00,LWC V2.10 B1813,2013-03-15 17:43:00,
2013-03-15 11:48:00,74.5,32.9,29.67,SE,135,3.8,3.8,22,0.00,,,0.00,LWC V2.10 B1813,2013-03-15 17:48:00,
2013-03-15 11:53:00,76.5,34.5,29.66,SE,135,5.8,5.8,22,0.00,,,0.00,LWC V2.10 B1813,2013-03-15 17:53:00,
2013-03-15 11:58:00,76.6,33.6,29.67,SE,135,0.0,0.0,21,0.00,,,0.00,LWC V2.10 B1813,2013-03-15 17:58:00,
2013-03-15 12:03:00,76.8,32.3,29.67,NE,45,0.0,0.0,21,0.00,,,0.00,LWC V2.10 B1813,2013-03-15 18:03:00,
2013-03-15 12:08:00,76.3,33.3,29.67,East,90,0.0,0.0,21,0.00,,,0.00,LWC V2.10 B1813,2013-03-15 18:08:00,
2013-03-15 12:13:00,75.9,32.0,29.67,WNW,292,0.0,0.0,20,0.00,,,0.00,LWC V2.10 B1813,2013-03-15 18:13:00,
2013-03-15 12:18:00,76.3,33.3,29.66,NNE,22,0.0,4.0,21,0.00,,,0.00,LWC V2.10 B1813,2013-03-15 18:18:00,
2013-03-15 12:23:00,76.6,33.6,29.66,South,180,4.5,4.5,21,0.00,,,0.00,LWC V2.10 B1813,2013-03-15 18:23:00,
2013-03-15 12:28:00,76.8,33.8,29.66,SSE,157,0.0,0.0,21,0.00,,,0.00,LWC V2.10 B1813,2013-03-15 18:28:00,
2013-03-15 12:33:00,78.6,30.8,29.66,NNE,22,0.0,0.0,18,0.00,,,0.00,LWC V2.10 B1813,2013-03-15 18:33:00,
2013-03-15 12:38:00,78.1,33.8,29.66,NE,45,1.8,1.8,20,0.00,,,0.00,LWC V2.10 B1813,2013-03-15 18:38:00,
2013-03-15 12:43:00,78.6,34.2,29.66,SSE,157,0.0,0.0,20,0.00,,,0.00,LWC V2.10 B1813,2013-03-15 18:43:00,
2013-03-15 12:48:00,79.0,34.5,29.66,South,180,6.0,6.0,20,0.00,,,0.00,LWC V2.10 B1813,2013-03-15 18:48:00,
2013-03-15 12:53:00,79.0,34.5,29.66,WSW,247,0.0,0.0,20,0.00,,,0.00,LWC V2.10 B1813,2013-03-15 18:53:00,
2013-03-15 12:58:00,79.5,35.0,29.65,SE,135,4.2,4.2,20,0.00,,,0.00,LWC V2.10 B1813,2013-03-15 18:58:00,
2013-03-15 13:03:00,79.5,33.3,29.65,SSW,202,0.0,2.9,20,0.00,,,0.00,LWC V2.10 B1813,2013-03-15 19:03:00,
2013-03-15 13:08:00,80.2,32.3,29.65,NE,45,0.0,0.0,18,0.00,,,0.00,LWC V2.10 B1813,2013-03-15 19:08:00,
2013-03-15 13:13:00,79.5,31.6,29.65,NNE,22,0.0,0.0,18,0.00,,,0.00,LWC V2.10 B1813,2013-03-15 19:13:00,
2013-03-15 13:18:00,78.6,30.8,29.65,SSE,157,1.3,1.3,18,0.00,,,0.00,LWC V2.10 B1813,2013-03-15 19:18:00,
2013-03-15 13:23:00,78.4,32.4,29.64,NE,45,3.8,4.0,19,0.00,,,0.00,LWC V2.10 B1813,2013-03-15 19:23:00,
2013-03-15 13:28:00,78.3,30.6,29.64,ENE,67,0.0,0.0,18,0.00,,,0.00,LWC V2.10 B1813,2013-03-15 19:28:00,
2013-03-15 13:33:00,77.5,31.7,29.64,SSE,157,7.2,7.2,19,0.00,,,0.00,LWC V2.10 B1813,2013-03-15 19:33:00,
2013-03-15 13:38:00,78.3,30.6,29.64,SE,135,0.0,0.0,18,0.00,,,0.00,LWC V2.10 B1813,2013-03-15 19:38:00,
2013-03-15 13:43:00,79.5,31.6,29.64,SSE,157,4.7,4.7,18,0.00,,,0.00,LWC V2.10 B1813,2013-03-15 19:43:00,
2013-03-15 13:48:00,79.0,31.1,29.63,NE,45,0.0,0.0,18,0.00,,,0.00,LWC V2.10 B1813,2013-03-15 19:48:00,
2013-03-15 13:53:00,77.7,33.5,29.63,SSE,157,1.8,1.8,20,0.00,,,0.00,LWC V2.10 B1813,2013-03-15 19:53:00,
2013-03-15 13:58:00,77.7,31.8,29.63,SSE,157,2.9,2.9,19,0.00,,,0.00,LWC V2.10 B1813,2013-03-15 19:58:00,
2013-03-15 14:03:00,78.4,32.4,29.63,SW,225,6.9,6.9,19,0.00,,,0.00,LWC V2.10 B1813,2013-03-15 20:03:00,
2013-03-15 14:08:00,79.2,33.0,29.63,SE,135,0.0,0.0,19,0.00,,,0.00,LWC V2.10 B1813,2013-03-15 20:08:00,
2013-03-15 14:13:00,79.5,31.6,29.63,SE,135,0.0,0.0,18,0.00,,,0.00,LWC V2.10 B1813,2013-03-15 20:13:00,
2013-03-15 14:18:00,80.2,32.3,29.63,South,180,6.5,6.5,18,0.00,,,0.00,LWC V2.10 B1813,2013-03-15 20:18:00,
2013-03-15 14:23:00,80.1,32.1,29.62,SSE,157,6.3,6.3,18,0.00,,,0.00,LWC V2.10 B1813,2013-03-15 20:23:00,
2013-03-15 14:28:00,79.5,31.6,29.62,NNE,22,3.6,3.6,18,0.00,,,0.00,LWC V2.10 B1813,2013-03-15 20:28:00,
2013-03-15 14:33:00,80.2,33.9,29.62,South,180,7.2,7.2,19,0.00,,,0.00,LWC V2.10 B1813,2013-03-15 20:33:00,
2013-03-15 14:38:00,80.4,34.1,29.62,WSW,247,3.8,3.8,19,0.00,,,0.00,LWC V2.10 B1813,2013-03-15 20:38:00,
2013-03-15 14:43:00,79.0,31.1,29.62,NW,315,6.3,6.3,18,0.00,,,0.00,LWC V2.10 B1813,2013-03-15 20:43:00,
2013-03-15 14:48:00,77.5,33.3,29.62,West,270,0.0,0.0,20,0.00,,,0.00,LWC V2.10 B1813,2013-03-15 20:48:00,
2013-03-15 14:53:00,77.2,31.4,29.62,WSW,247,6.3,6.3,19,0.00,,,0.00,LWC V2.10 B1813,2013-03-15 20:53:00,
2013-03-15 14:58:00,77.4,31.7,29.62,WSW,247,0.0,0.0,19,0.00,,,0.00,LWC V2.10 B1813,2013-03-15 20:58:00,
2013-03-15 15:03:00,76.6,32.6,29.62,SW,225,0.0,4.7,20,0.00,,,0.00,LWC V2.10 B1813,2013-03-15 21:03:00,
2013-03-15 15:08:00,75.4,31.6,29.62,SE,135,2.7,2.7,20,0.00,,,0.00,LWC V2.10 B1813,2013-03-15 21:08:00,
2013-03-15 15:13:00,75.0,31.2,29.61,South,180,8.9,8.9,20,0.00,,,0.00,LWC V2.10 B1813,2013-03-15 21:13:00,
2013-03-15 15:18:00,75.2,31.5,29.61,WSW,247,5.4,5.4,20,0.00,,,0.00,LWC V2.10 B1813,2013-03-15 21:18:00,
2013-03-15 15:23:00,75.6,31.7,29.61,WSW,247,1.8,1.8,20,0.00,,,0.00,LWC V2.10 B1813,2013-03-15 21:23:00,
2013-03-15 15:28:00,76.5,32.6,29.62,WSW,247,5.4,5.4,20,0.00,,,0.00,LWC V2.10 B1813,2013-03-15 21:28:00,
2013-03-15 15:33:00,75.9,32.0,29.61,South,180,7.6,7.6,20,0.00,,,0.00,LWC V2.10 B1813,2013-03-15 21:33:00,
2013-03-15 15:38:00,75.7,31.9,29.62,SW,225,4.0,4.0,20,0.00,,,0.00,LWC V2.10 B1813,2013-03-15 21:38:00,
2013-03-15 15:43:00,75.0,31.3,29.61,South,180,0.0,0.0,20,0.00,,,0.00,LWC V2.10 B1813,2013-03-15 21:43:00,
2013-03-15 15:48:00,74.8,31.2,29.61,North,0,0.0,3.6,20,0.00,,,0.00,LWC V2.10 B1813,2013-03-15 21:48:00,
2013-03-15 15:53:00,74.8,32.2,29.61,NNW,337,4.5,4.5,21,0.00,,,0.00,LWC V2.10 B1813,2013-03-15 21:53:00,
2013-03-15 15:58:00,75.0,32.2,29.62,SW,225,4.5,10.3,21,0.00,,,0.00,LWC V2.10 B1813,2013-03-15 21:58:00,
2013-03-15 16:03:00,75.4,31.6,29.61,WSW,247,5.1,7.6,20,0.00,,,0.00,LWC V2.10 B1813,2013-03-15 22:03:00,
2013-03-15 16:08:00,74.8,31.2,29.61,SSW,202,4.9,4.9,20,0.00,,,0.00,LWC V2.10 B1813,2013-03-15 22:08:00,
2013-03-15 16:13:00,74.5,31.2,29.62,South,180,9.4,9.4,20,0.00,,,0.00,LWC V2.10 B1813,2013-03-15 22:13:00,
2013-03-15 16:18:00,73.8,30.3,29.61,West,270,0.0,0.0,20,0.00,,,0.00,LWC V2.10 B1813,2013-03-15 22:18:00,
2013-03-15 16:23:00,73.6,31.2,29.62,SW,225,0.0,0.0,21,0.00,,,0.00,LWC V2.10 B1813,2013-03-15 22:23:00,
2013-03-15 16:28:00,73.2,30.9,29.62,WSW,247,0.0,0.0,21,0.00,,,0.00,LWC V2.10 B1813,2013-03-15 22:28:00,
2013-03-15 16:33:00,73.4,31.0,29.61,West,270,2.9,2.9,21,0.00,,,0.00,LWC V2.10 B1813,2013-03-15 22:33:00,
2013-03-15 16:38:00,73.6,31.2,29.61,South,180,6.3,6.3,21,0.00,,,0.00,LWC V2.10 B1813,2013-03-15 22:38:00,
2013-03-15 16:43:00,74.1,31.6,29.61,WSW,247,0.0,5.4,21,0.00,,,0.00,LWC V2.10 B1813,2013-03-15 22:43:00,
2013-03-15 16:48:00,75.2,32.5,29.61,WSW,247,0.0,0.0,21,0.00,,,0.00,LWC V2.10 B1813,2013-03-15 22:48:00,
2013-03-15 16:53:00,75.7,31.9,29.61,WSW,247,1.8,1.8,20,0.00,,,0.00,LWC V2.10 B1813,2013-03-15 22:53:00,
2013-03-15 16:58:00,75.6,31.7,29.61,WSW,247,6.7,9.4,20,0.00,,,0.00,LWC V2.10 B1813,2013-03-15 22:58:00,
2013-03-15 17:03:00,74.8,31.2,29.61,WSW,247,0.0,1.6,20,0.00,,,0.00,LWC V2.10 B1813,2013-03-15 23:03:00,
2013-03-15 17:08:00,74.5,31.9,29.61,WSW,247,3.6,3.6,21,0.00,,,0.00,LWC V2.10 B1813,2013-03-15 23:08:00,
2013-03-15 17:13:00,74.5,31.9,29.61,SSE,157,0.0,3.8,21,0.00,,,0.00,LWC V2.10 B1813,2013-03-15 23:13:00,
2013-03-15 17:18:00,74.3,31.7,29.61,SSW,202,5.1,5.1,21,0.00,,,0.00,LWC V2.10 B1813,2013-03-15 23:18:00,
2013-03-15 17:23:00,73.9,31.5,29.61,South,180,3.6,3.6,21,0.00,,,0.00,LWC V2.10 B1813,2013-03-15 23:23:00,
2013-03-15 17:28:00,73.8,31.3,29.61,SW,225,4.7,4.9,21,0.00,,,0.00,LWC V2.10 B1813,2013-03-15 23:28:00,
2013-03-15 17:33:00,73.9,31.5,29.61,WSW,247,0.0,0.0,21,0.00,,,0.00,LWC V2.10 B1813,2013-03-15 23:33:00,
2013-03-15 17:38:00,73.9,31.5,29.61,SSW,202,7.4,7.4,21,0.00,,,0.00,LWC V2.10 B1813,2013-03-15 23:38:00,
2013-03-15 17:43:00,73.2,29.9,29.61,SW,225,0.0,0.0,20,0.00,,,0.00,LWC V2.10 B1813,2013-03-15 23:43:00,
2013-03-15 17:48:00,72.9,30.5,29.61,SSW,202,2.5,2.5,21,0.00,,,0.00,LWC V2.10 B1813,2013-03-15 23:48:00,
2013-03-15 17:53:00,72.3,30.1,29.61,West,270,0.0,0.0,21,0.00,,,0.00,LWC V2.10 B1813,2013-03-15 23:53:00,
2013-03-15 17:58:00,71.4,29.3,29.61,SSW,202,10.3,10.3,21,0.00,,,0.00,LWC V2.10 B1813,2013-03-15 23:58:00,
2013-03-15 18:03:00,71.2,29.1,29.61,NNW,337,0.0,0.0,21,0.00,,,0.00,LWC V2.10 B1813,2013-03-16 00:03:00,
2013-03-15 18:08:00,71.1,29.0,29.61,WSW,247,4.9,4.9,21,0.00,,,0.00,LWC V2.10 B1813,2013-03-16 00:08:00,
2013-03-15 18:13:00,71.2,29.1,29.61,WSW,247,0.0,0.0,21,0.00,,,0.00,LWC V2.10 B1813,2013-03-16 00:13:00,
2013-03-15 18:18:00,71.2,29.1,29.61,WSW,247,0.0,0.0,21,0.00,,,0.00,LWC V2.10 B1813,2013-03-16 00:18:00,
2013-03-15 18:23:00,71.2,29.1,29.61,WSW,247,0.0,0.0,21,0.00,,,0.00,LWC V2.10 B1813,2013-03-16 00:23:00,
2013-03-15 18:28:00,70.5,28.5,29.61,WSW,247,0.0,5.1,21,0.00,,,0.00,LWC V2.10 B1813,2013-03-16 00:28:00,
2013-03-15 18:33:00,70.3,28.4,29.61,North,0,6.7,6.7,21,0.00,,,0.00,LWC V2.10 B1813,2013-03-16 00:33:00,
2013-03-15 18:38:00,69.8,28.0,29.61,NNW,337,5.6,5.6,21,0.00,,,0.00,LWC V2.10 B1813,2013-03-16 00:38:00,
2013-03-15 18:43:00,69.3,27.5,29.61,West,270,10.5,10.5,21,0.00,,,0.00,LWC V2.10 B1813,2013-03-16 00:43:00,
2013-03-15 18:48:00,68.9,28.2,29.62,SSW,202,0.0,0.0,22,0.00,,,0.00,LWC V2.10 B1813,2013-03-16 00:48:00,
2013-03-15 18:53:00,68.4,27.8,29.62,WSW,247,3.1,3.1,22,0.00,,,0.00,LWC V2.10 B1813,2013-03-16 00:53:00,
2013-03-15 18:58:00,67.6,27.2,29.62,SSW,202,5.6,5.6,22,0.00,,,0.00,LWC V2.10 B1813,2013-03-16 00:58:00,
2013-03-15 19:03:00,67.3,26.9,29.62,WSW,247,6.7,6.7,22,0.00,,,0.00,LWC V2.10 B1813,2013-03-16 01:03:00,
2013-03-15 19:08:00,67.3,26.9,29.63,WSW,247,0.0,0.0,22,0.00,,,0.00,LWC V2.10 B1813,2013-03-16 01:08:00,
2013-03-15 19:13:00,66.6,27.2,29.63,North,0,0.0,0.0,23,0.00,,,0.00,LWC V2.10 B1813,2013-03-16 01:13:00,
2013-03-15 19:18:00,66.0,26.8,29.63,SSW,202,0.0,0.0,23,0.00,,,0.00,LWC V2.10 B1813,2013-03-16 01:18:00,
2013-03-15 19:23:00,65.5,27.3,29.63,WSW,247,0.0,0.0,24,0.00,,,0.00,LWC V2.10 B1813,2013-03-16 01:23:00,
2013-03-15 19:28:00,65.5,27.3,29.63,West,270,5.6,6.3,24,0.00,,,0.00,LWC V2.10 B1813,2013-03-16 01:28:00,
2013-03-15 19:33:00,65.5,27.3,29.63,South,180,0.0,0.0,24,0.00,,,0.00,LWC V2.10 B1813,2013-03-16 01:33:00,
2013-03-15 19:38:00,65.5,27.2,29.64,WSW,247,0.0,0.0,24,0.00,,,0.00,LWC V2.10 B1813,2013-03-16 01:38:00,
2013-03-15 19:43:00,65.1,27.0,29.64,West,270,0.0,0.0,24,0.00,,,0.00,LWC V2.10 B1813,2013-03-16 01:43:00,
2013-03-15 19:48:00,64.6,27.6,29.64,SW,225,0.0,0.0,25,0.00,,,0.00,LWC V2.10 B1813,2013-03-16 01:48:00,
2013-03-15 19:53:00,64.2,27.2,29.65,SSW,202,0.0,0.0,25,0.00,,,0.00,LWC V2.10 B1813,2013-03-16 01:53:00,
2013-03-15 19:58:00,63.1,27.3,29.65,SSW,202,0.0,0.0,26,0.00,,,0.00,LWC V2.10 B1813,2013-03-16 01:58:00,
2013-03-15 20:03:00,61.9,27.2,29.65,SSW,202,0.0,0.0,27,0.00,,,0.00,LWC V2.10 B1813,2013-03-16 02:03:00,
2013-03-15 20:08:00,60.6,26.6,29.64,SSW,202,0.0,0.0,28,0.00,,,0.00,LWC V2.10 B1813,2013-03-16 02:08:00,
2013-03-15 20:13:00,58.8,26.5,29.64,SSW,202,0.0,0.0,29,0.00,,,0.00,LWC V2.10 B1813,2013-03-16 02:13:00,
2013-03-15 20:18:00,58.3,26.1,29.64,SSW,202,0.0,0.0,29,0.00,,,0.00,LWC V2.10 B1813,2013-03-16 02:18:00,
2013-03-15 20:23:00,57.6,26.1,29.64,SSW,202,0.0,0.0,30,0.00,,,0.00,LWC V2.10 B1813,2013-03-16 02:23:00,
2013-03-15 20:28:00,56.7,26.3,29.64,SSW,202,0.0,0.0,31,0.00,,,0.00,LWC V2.10 B1813,2013-03-16 02:28:00,
2013-03-15 20:33:00,55.8,26.2,29.65,SSW,202,0.0,0.0,32,0.00,,,0.00,LWC V2.10 B1813,2013-03-16 02:33:00,
2013-03-15 20:38:00,54.3,26.5,29.64,SSW,202,0.0,0.0,34,0.00,,,0.00,LWC V2.10 B1813,2013-03-16 02:38:00,
2013-03-15 20:43:00,53.8,25.9,29.64,SSW,202,0.0,0.0,34,0.00,,,0.00,LWC V2.10 B1813,2013-03-16 02:43:00,
2013-03-15 20:48:00,53.4,25.6,29.64,SSW,202,0.0,0.0,34,0.00,,,0.00,LWC V2.10 B1813,2013-03-16 02:48:00,
2013-03-15 20:53:00,53.2,26.3,29.64,SSW,202,0.0,0.0,35,0.00,,,0.00,LWC V2.10 B1813,2013-03-16 02:53:00,
2013-03-15 20:58:00,52.7,25.6,29.64,SSW,202,0.0,0.0,35,0.00,,,0.00,LWC V2.10 B1813,2013-03-16 02:58:00,
2013-03-15 21:03:00,52.5,25.4,29.64,SSW,202,0.0,0.0,35,0.00,,,0.00,LWC V2.10 B1813,2013-03-16 03:03:00,
2013-03-15 21:08:00,52.3,26.0,29.64,SSW,202,0.0,0.0,36,0.00,,,0.00,LWC V2.10 B1813,2013-03-16 03:08:00,
2013-03-15 21:14:00,52.2,25.8,29.64,SSW,202,0.0,0.0,36,0.00,,,0.00,LWC V2.10 B1813,2013-03-16 03:14:00,
2013-03-15 21:19:00,52.2,25.8,29.64,SSW,202,0.0,0.0,36,0.00,,,0.00,LWC V2.10 B1813,2013-03-16 03:19:00,
2013-03-15 21:24:00,51.6,26.0,29.64,SSW,202,0.0,0.0,37,0.00,,,0.00,LWC V2.10 B1813,2013-03-16 03:24:00,
2013-03-15 21:29:00,51.1,25.5,29.64,SSW,202,0.0,0.0,37,0.00,,,0.00,LWC V2.10 B1813,2013-03-16 03:29:00,
2013-03-15 21:34:00,51.1,25.5,29.65,SSW,202,0.0,0.0,37,0.00,,,0.00,LWC V2.10 B1813,2013-03-16 03:34:00,
2013-03-15 21:39:00,50.9,26.2,29.64,SSW,202,0.0,0.0,39,0.00,,,0.00,LWC V2.10 B1813,2013-03-16 03:39:00,
2013-03-15 21:44:00,50.7,25.9,29.64,SSW,202,0.0,0.0,38,0.00,,,0.00,LWC V2.10 B1813,2013-03-16 03:44:00,
2013-03-15 21:49:00,50.5,25.7,29.64,SSW,202,0.0,0.0,38,0.00,,,0.00,LWC V2.10 B1813,2013-03-16 03:49:00,
2013-03-15 21:54:00,50.4,26.2,29.64,SSW,202,0.0,0.0,39,0.00,,,0.00,LWC V2.10 B1813,2013-03-16 03:54:00,
2013-03-15 21:59:00,50.2,26.1,29.64,SSW,202,0.0,0.0,39,0.00,,,0.00,LWC V2.10 B1813,2013-03-16 03:59:00,
2013-03-15 22:00:00,50.2,26.1,29.64,SSW,202,0.0,0.0,39,0.00,,,0.00,LWC V2.10 B1813,2013-03-16 04:00:00,
2013-03-15 22:01:00,50.2,26.1,29.64,SSW,202,0.0,0.0,39,0.00,,,0.00,LWC V2.10 B1813,2013-03-16 04:01:00,
2013-03-15 22:06:00,50.4,26.9,29.64,SSW,202,0.0,0.0,40,0.00,,,0.00,LWC V2.10 B1813,2013-03-16 04:06:00,
2013-03-15 22:11:00,50.7,25.9,29.64,SSW,202,0.0,0.0,38,0.00,,,0.00,LWC V2.10 B1813,2013-03-16 04:11:00,
2013-03-15 22:16:00,50.2,26.1,29.64,SSW,202,0.0,0.0,39,0.00,,,0.00,LWC V2.10 B1813,2013-03-16 04:16:00,
2013-03-15 22:21:00,49.6,26.3,29.65,SSW,202,0.0,0.0,40,0.00,,,0.00,LWC V2.10 B1813,2013-03-16 04:21:00,
2013-03-15 22:26:00,48.7,25.5,29.64,SSW,202,0.0,0.0,40,0.00,,,0.00,LWC V2.10 B1813,2013-03-16 04:26:00,
2013-03-15 22:31:00,48.0,25.4,29.65,WSW,247,0.0,0.0,41,0.00,,,0.00,LWC V2.10 B1813,2013-03-16 04:31:00,
2013-03-15 22:36:00,48.4,25.7,29.66,WSW,247,0.0,0.0,41,0.00,,,0.00,LWC V2.10 B1813,2013-03-16 04:36:00,
2013-03-15 22:41:00,48.4,25.7,29.66,West,270,0.0,0.0,41,0.00,,,0.00,LWC V2.10 B1813,2013-03-16 04:41:00,
2013-03-15 22:46:00,48.0,26.4,29.66,SSW,202,0.0,0.0,43,0.00,,,0.00,LWC V2.10 B1813,2013-03-16 04:46:00,
2013-03-15 22:51:00,47.8,25.7,29.66,SSW,202,0.0,0.0,42,0.00,,,0.00,LWC V2.10 B1813,2013-03-16 04:51:00,
2013-03-15 22:56:00,48.2,26.1,29.66,SSW,202,0.0,0.0,42,0.00,,,0.00,LWC V2.10 B1813,2013-03-16 04:56:00,
2013-03-15 23:01:00,48.0,25.9,29.66,SSW,202,0.0,0.0,42,0.00,,,0.00,LWC V2.10 B1813,2013-03-16 05:01:00,
2013-03-15 23:06:00,47.8,26.3,29.65,WSW,247,0.0,0.0,43,0.00,,,0.00,LWC V2.10 B1813,2013-03-16 05:06:00,
2013-03-15 23:11:00,48.0,26.4,29.65,NW,315,0.0,0.0,43,0.00,,,0.00,LWC V2.10 B1813,2013-03-16 05:11:00,
2013-03-15 23:16:00,48.7,26.5,29.65,SW,225,4.0,4.0,42,0.00,,,0.00,LWC V2.10 B1813,2013-03-16 05:16:00,
2013-03-15 23:21:00,53.2,28.8,29.65,SSW,202,3.8,3.8,39,0.00,,,0.00,LWC V2.10 B1813,2013-03-16 05:21:00,
2013-03-15 23:26:00,55.2,29.2,29.65,SW,225,5.8,5.8,37,0.00,,,0.00,LWC V2.10 B1813,2013-03-16 05:26:00,
2013-03-15 23:31:00,56.8,29.9,29.65,West,270,0.0,0.0,36,0.00,,,0.00,LWC V2.10 B1813,2013-03-16 05:31:00,
2013-03-15 23:36:00,58.5,30.0,29.64,SW,225,8.7,8.7,34,0.00,,,0.00,LWC V2.10 B1813,2013-03-16 05:36:00,
2013-03-15 23:41:00,58.8,30.3,29.64,SSW,202,5.8,5.8,34,0.00,,,0.00,LWC V2.10 B1813,2013-03-16 05:41:00,
2013-03-15 23:46:00,58.8,29.6,29.64,SSW,202,5.6,5.6,33,0.00,,,0.00,LWC V2.10 B1813,2013-03-16 05:46:00,
2013-03-15 23:51:00,59.2,29.9,29.64,SW,225,0.0,6.5,33,0.00,,,0.00,LWC V2.10 B1813,2013-03-16 05:51:00,
2013-03-15 23:56:00,59.4,30.1,29.64,West,270,0.0,0.0,33,0.00,,,0.00,LWC V2.10 B1813,2013-03-16 05:56:00,